PWSweather.com
Personal Weather Stations
Station Observations
SWHWX01
St AppolinardFR 38160

St AppolinardFR 38160

Lat: 45.191, Lon: 5.268

Elevation: 1460

Station Type: Davis Vantage Pro2 Plus

www.sweetwebhome.com/?show=wxindex

High Low Average
Temperature 49.9°F9.9°C 45.6°F7.6°C 47.8°F8.8°C
Dew Point 48.1°F8.9°C 43.3°F6.3°C 45.5°F7.5°C
Winds 4.8 mph 7.7 kmh Calm Calm 1.0 mph SW1.6 kmh SW
Wind Gusts 10.0 mph16.1 kmh -- 2.0 mph3.2 kmh
Humidity 96% 83% 92%
Pressure 30.06 in1017.9 mb 29.83 in1010.2 mb -
Precipitation 0.54 in13.7 mm - -
Hour Temp Dew Point Humidity Winds Wind Gusts Pressure Precip Precip Rate Daily Precip Total
12:00 AM 46.9°F8.3°C 44.7°F7.1°C 92% 0.8 mph WSW1.3 kmh WSW 1.0 mph1.6 kmh 29.89 in1012.2 mb - 0.00 in0.0 mm 0.00 in0.0 mm
12:30 AM 46.9°F8.3°C 44.7°F7.1°C 92% 0.8 mph WSW1.3 kmh WSW 1.0 mph1.6 kmh 29.89 in1012.2 mb - 0.00 in0.0 mm 0.00 in0.0 mm
01:00 AM 46.7°F8.2°C 44.8°F7.1°C 93% Calm Calm 2.0 mph3.2 kmh 29.89 in1012.2 mb - 0.02 in0.5 mm 0.02 in0.5 mm
01:30 AM 46.4°F8.0°C 44.7°F7.1°C 94% 0.2 mph WSW0.3 kmh WSW -- 29.88 in1011.9 mb - 0.00 in0.0 mm 0.02 in0.5 mm
02:00 AM 46.1°F7.8°C 44.5°F6.9°C 94% Calm Calm -- 29.86 in1011.2 mb - 0.00 in0.0 mm 0.02 in0.5 mm
02:30 AM 46.2°F7.9°C 44.3°F6.8°C 93% Calm Calm -- 29.86 in1011.2 mb - 0.02 in0.5 mm 0.03 in0.8 mm
03:00 AM 46.1°F7.8°C 43.6°F6.4°C 91% 0.8 mph WSW1.3 kmh WSW 3.0 mph4.8 kmh 29.86 in1011.2 mb - 0.01 in0.3 mm 0.04 in1.0 mm
03:30 AM 45.9°F7.7°C 43.7°F6.5°C 92% 1.3 mph WSW2.1 kmh WSW 2.0 mph3.2 kmh 29.86 in1011.2 mb - 0.01 in0.3 mm 0.05 in1.3 mm
04:00 AM 46.0°F7.8°C 43.5°F6.4°C 91% 0.1 mph WSW0.2 kmh WSW 1.0 mph1.6 kmh 29.86 in1011.2 mb - 0.00 in0.0 mm 0.05 in1.3 mm
04:30 AM 46.3°F7.9°C 43.8°F6.6°C 91% 1.2 mph WSW1.9 kmh WSW 2.0 mph3.2 kmh 29.86 in1011.2 mb - 0.00 in0.0 mm 0.05 in1.3 mm
05:00 AM 46.6°F8.1°C 43.6°F6.4°C 89% 0.5 mph WSW0.8 kmh WSW 2.0 mph3.2 kmh 29.85 in1010.8 mb - 0.01 in0.3 mm 0.06 in1.5 mm
05:30 AM 46.4°F8.0°C 43.6°F6.4°C 90% Calm Calm 2.0 mph3.2 kmh 29.83 in1010.2 mb - 0.00 in0.0 mm 0.06 in1.5 mm
06:00 AM 48.4°F9.1°C 44.1°F6.7°C 85% 2.6 mph WSW4.2 kmh WSW 4.0 mph6.4 kmh 29.84 in1010.5 mb - 0.00 in0.0 mm 0.06 in1.5 mm
06:30 AM 47.8°F8.8°C 43.8°F6.6°C 86% Calm Calm 3.0 mph4.8 kmh 29.84 in1010.5 mb - 0.00 in0.0 mm 0.06 in1.5 mm
07:00 AM 47.0°F8.3°C 43.3°F6.3°C 87% 3.6 mph SW5.8 kmh SW 7.0 mph11.3 kmh 29.87 in1011.5 mb - 0.00 in0.0 mm 0.06 in1.5 mm
07:30 AM 45.9°F7.7°C 43.4°F6.3°C 91% 4.8 mph WSW7.7 kmh WSW 8.0 mph12.9 kmh 29.90 in1012.5 mb - 0.00 in0.0 mm 0.06 in1.5 mm
08:00 AM 45.6°F7.6°C 43.4°F6.3°C 92% 4.3 mph WSW6.9 kmh WSW 5.0 mph8.0 kmh 29.90 in1012.5 mb - 0.00 in0.0 mm 0.06 in1.5 mm
08:30 AM 46.3°F7.9°C 44.1°F6.7°C 92% Calm Calm 1.0 mph1.6 kmh 29.89 in1012.2 mb - 0.00 in0.0 mm 0.06 in1.5 mm
09:00 AM 47.7°F8.7°C 45.5°F7.5°C 92% 0.1 mph WSW0.2 kmh WSW 1.0 mph1.6 kmh 29.90 in1012.5 mb - 0.00 in0.0 mm 0.06 in1.5 mm
09:30 AM 48.3°F9.1°C 44.3°F6.8°C 86% Calm Calm -- 29.90 in1012.5 mb - 0.00 in0.0 mm 0.06 in1.5 mm
10:00 AM 48.9°F9.4°C 44.9°F7.2°C 86% Calm Calm -- 29.90 in1012.5 mb - 0.00 in0.0 mm 0.06 in1.5 mm
10:30 AM 49.7°F9.8°C 45.1°F7.3°C 84% 1.4 mph WSW2.3 kmh WSW 2.0 mph3.2 kmh 29.91 in1012.9 mb - 0.00 in0.0 mm 0.06 in1.5 mm
11:00 AM 49.9°F9.9°C 44.9°F7.2°C 83% Calm Calm -- 29.91 in1012.9 mb - 0.00 in0.0 mm 0.06 in1.5 mm
11:30 AM 49.5°F9.7°C 45.2°F7.3°C 85% 0.6 mph W1.0 kmh W -- 29.91 in1012.9 mb - 0.02 in0.5 mm 0.07 in1.8 mm
12:00 PM 48.7°F9.3°C 45.6°F7.6°C 89% 3.1 mph WSW5.0 kmh WSW 5.0 mph8.0 kmh 29.93 in1013.5 mb - 0.02 in0.5 mm 0.09 in2.3 mm
12:30 PM 47.8°F8.8°C 45.3°F7.4°C 91% 0.1 mph W0.2 kmh W 3.0 mph4.8 kmh 29.93 in1013.5 mb - 0.06 in1.5 mm 0.15 in3.8 mm
01:00 PM 47.1°F8.4°C 44.9°F7.2°C 92% 1.3 mph SSW2.1 kmh SSW 3.0 mph4.8 kmh 29.93 in1013.5 mb - 0.13 in3.3 mm 0.27 in6.9 mm
01:30 PM 46.9°F8.3°C 44.7°F7.1°C 92% 4.4 mph SE7.1 kmh SE 10.0 mph16.1 kmh 29.94 in1013.9 mb - 0.12 in3.0 mm 0.38 in9.7 mm
02:00 PM 47.0°F8.3°C 45.1°F7.3°C 93% Calm Calm -- 29.93 in1013.5 mb - 0.46 in11.7 mm 0.46 in11.7 mm
02:30 PM 47.5°F8.6°C 45.6°F7.6°C 93% 3.1 mph SSE5.0 kmh SSE 5.0 mph8.0 kmh 29.94 in1013.9 mb - 0.47 in11.9 mm 0.47 in11.9 mm
03:00 PM 47.7°F8.7°C 45.8°F7.7°C 93% 1.6 mph SW2.6 kmh SW 2.0 mph3.2 kmh 29.96 in1014.6 mb - 0.02 in0.5 mm 0.49 in12.4 mm
03:30 PM 48.5°F9.2°C 46.6°F8.1°C 93% 4.3 mph WSW6.9 kmh WSW 7.0 mph11.3 kmh 29.96 in1014.6 mb - 0.00 in0.0 mm 0.49 in12.4 mm
04:00 PM 49.2°F9.6°C 47.0°F8.3°C 92% 0.8 mph WSW1.3 kmh WSW 4.0 mph6.4 kmh 29.98 in1015.2 mb - 0.00 in0.0 mm 0.49 in12.4 mm
04:30 PM 49.3°F9.6°C 47.4°F8.6°C 93% 1.1 mph WSW1.8 kmh WSW 2.0 mph3.2 kmh 29.99 in1015.6 mb - 0.00 in0.0 mm 0.49 in12.4 mm
05:00 PM 49.2°F9.6°C 47.3°F8.5°C 93% 2.5 mph WSW4.0 kmh WSW 3.0 mph4.8 kmh 30.00 in1015.9 mb - 0.49 in12.4 mm 0.49 in12.4 mm
05:30 PM 49.3°F9.6°C 47.4°F8.6°C 93% Calm Calm -- 30.00 in1015.9 mb - 0.00 in0.0 mm 0.50 in12.7 mm
06:00 PM 48.9°F9.4°C 47.2°F8.4°C 94% Calm Calm -- 30.02 in1016.6 mb - 0.02 in0.5 mm 0.51 in13.0 mm
06:30 PM 48.7°F9.3°C 47.1°F8.4°C 94% Calm Calm -- 30.02 in1016.6 mb - 0.00 in0.0 mm 0.51 in13.0 mm
07:00 PM 49.0°F9.4°C 47.6°F8.7°C 95% 0.2 mph SW0.3 kmh SW 3.0 mph4.8 kmh 30.04 in1017.3 mb - 0.00 in0.0 mm 0.51 in13.0 mm
07:30 PM 48.0°F8.9°C 46.4°F8.0°C 94% Calm Calm -- 30.05 in1017.6 mb - 0.00 in0.0 mm 0.51 in13.0 mm
08:00 PM 48.5°F9.2°C 47.1°F8.4°C 95% 1.3 mph SW2.1 kmh SW 2.0 mph3.2 kmh 30.05 in1017.6 mb - 0.01 in0.3 mm 0.53 in13.5 mm
08:30 PM 49.3°F9.6°C 47.9°F8.8°C 95% Calm Calm -- 30.05 in1017.6 mb - 0.02 in0.5 mm 0.54 in13.7 mm
09:00 PM 48.4°F9.1°C 47.0°F8.3°C 95% Calm Calm -- 30.05 in1017.6 mb - 0.00 in0.0 mm 0.54 in13.7 mm
09:30 PM 48.7°F9.3°C 47.3°F8.5°C 95% Calm Calm -- 30.05 in1017.6 mb - 0.54 in13.7 mm 0.54 in13.7 mm
10:00 PM 49.2°F9.6°C 48.1°F8.9°C 96% 0.4 mph SW0.6 kmh SW 2.0 mph3.2 kmh 30.05 in1017.6 mb - 0.54 in13.7 mm 0.54 in13.7 mm
10:30 PM 48.7°F9.3°C 47.3°F8.5°C 95% 2.4 mph SW3.9 kmh SW 4.0 mph6.4 kmh 30.05 in1017.6 mb - 0.00 in0.0 mm 0.54 in13.7 mm
11:00 PM 48.2°F9.0°C 46.8°F8.2°C 95% 2.0 mph SW3.2 kmh SW 3.0 mph4.8 kmh 30.06 in1017.9 mb - 0.00 in0.0 mm 0.54 in13.7 mm
11:30 PM 49.1°F9.5°C 48.0°F8.9°C 96% Calm Calm -- 30.06 in1017.9 mb - 0.01 in0.3 mm 0.54 in13.7 mm